sensor_id;sensor_type;location;lat;lon;timestamp;P1;durP1;ratioP1;P2;durP2;ratioP2
16393;SDS011;8306;51.128;4.476;2022-10-14T00:01:40;15.77;;;14.67;;
16393;SDS011;8306;51.128;4.476;2022-10-14T00:04:06;15.37;;;14.27;;
16393;SDS011;8306;51.128;4.476;2022-10-14T00:06:33;16.40;;;15.30;;
16393;SDS011;8306;51.128;4.476;2022-10-14T00:09:00;15.70;;;14.70;;
16393;SDS011;8306;51.128;4.476;2022-10-14T00:11:29;18.33;;;16.93;;
16393;SDS011;8306;51.128;4.476;2022-10-14T00:13:56;15.77;;;14.70;;
16393;SDS011;8306;51.128;4.476;2022-10-14T00:16:25;16.40;;;15.30;;
16393;SDS011;8306;51.128;4.476;2022-10-14T00:18:50;19.77;;;18.07;;
16393;SDS011;8306;51.128;4.476;2022-10-14T00:21:17;22.43;;;20.43;;
16393;SDS011;8306;51.128;4.476;2022-10-14T00:23:44;18.27;;;16.90;;
16393;SDS011;8306;51.128;4.476;2022-10-14T00:26:20;18.47;;;17.23;;
16393;SDS011;8306;51.128;4.476;2022-10-14T00:28:45;17.43;;;16.20;;
16393;SDS011;8306;51.128;4.476;2022-10-14T00:31:12;17.47;;;16.10;;
16393;SDS011;8306;51.128;4.476;2022-10-14T00:33:38;16.53;;;15.40;;
16393;SDS011;8306;51.128;4.476;2022-10-14T00:36:05;16.13;;;15.03;;
16393;SDS011;8306;51.128;4.476;2022-10-14T00:38:32;16.63;;;15.40;;
16393;SDS011;8306;51.128;4.476;2022-10-14T00:40:58;15.53;;;14.33;;
16393;SDS011;8306;51.128;4.476;2022-10-14T00:43:25;19.73;;;18.07;;
16393;SDS011;8306;51.128;4.476;2022-10-14T00:45:51;18.17;;;16.70;;
16393;SDS011;8306;51.128;4.476;2022-10-14T00:48:18;17.57;;;16.27;;
16393;SDS011;8306;51.128;4.476;2022-10-14T00:50:44;16.33;;;15.20;;
16393;SDS011;8306;51.128;4.476;2022-10-14T00:53:10;15.03;;;14.03;;
16393;SDS011;8306;51.128;4.476;2022-10-14T00:55:37;16.33;;;15.07;;
16393;SDS011;8306;51.128;4.476;2022-10-14T00:58:04;14.17;;;13.27;;
16393;SDS011;8306;51.128;4.476;2022-10-14T01:00:30;14.37;;;13.37;;
16393;SDS011;8306;51.128;4.476;2022-10-14T01:02:56;15.00;;;13.70;;
16393;SDS011;8306;51.128;4.476;2022-10-14T01:05:23;16.57;;;15.43;;
16393;SDS011;8306;51.128;4.476;2022-10-14T01:08:04;15.63;;;14.43;;
16393;SDS011;8306;51.128;4.476;2022-10-14T01:10:29;14.23;;;13.30;;
16393;SDS011;8306;51.128;4.476;2022-10-14T01:13:16;15.10;;;14.10;;
16393;SDS011;8306;51.128;4.476;2022-10-14T01:24:00;14.07;;;13.17;;
16393;SDS011;8306;51.128;4.476;2022-10-14T01:26:26;14.77;;;13.77;;
16393;SDS011;8306;51.128;4.476;2022-10-14T01:29:07;14.50;;;13.50;;
16393;SDS011;8306;51.128;4.476;2022-10-14T01:31:31;16.17;;;15.07;;
16393;SDS011;8306;51.128;4.476;2022-10-14T01:33:58;13.77;;;12.87;;
16393;SDS011;8306;51.128;4.476;2022-10-14T01:36:31;12.80;;;11.90;;
16393;SDS011;8306;51.128;4.476;2022-10-14T01:39:04;12.27;;;11.40;;
16393;SDS011;8306;51.128;4.476;2022-10-14T01:41:27;13.83;;;12.93;;
16393;SDS011;8306;51.128;4.476;2022-10-14T01:43:52;13.67;;;12.77;;
16393;SDS011;8306;51.128;4.476;2022-10-14T01:46:19;14.67;;;13.60;;
16393;SDS011;8306;51.128;4.476;2022-10-14T01:48:46;13.60;;;12.60;;
16393;SDS011;8306;51.128;4.476;2022-10-14T01:51:14;13.30;;;12.40;;
16393;SDS011;8306;51.128;4.476;2022-10-14T01:53:39;13.93;;;13.03;;
16393;SDS011;8306;51.128;4.476;2022-10-14T01:56:05;13.47;;;12.57;;
16393;SDS011;8306;51.128;4.476;2022-10-14T01:58:31;15.70;;;14.30;;
16393;SDS011;8306;51.128;4.476;2022-10-14T02:00:58;13.50;;;12.50;;
16393;SDS011;8306;51.128;4.476;2022-10-14T02:03:24;14.23;;;13.27;;
16393;SDS011;8306;51.128;4.476;2022-10-14T02:05:53;14.87;;;13.77;;
16393;SDS011;8306;51.128;4.476;2022-10-14T02:11:04;14.70;;;13.50;;
16393;SDS011;8306;51.128;4.476;2022-10-14T02:13:43;14.90;;;13.63;;
16393;SDS011;8306;51.128;4.476;2022-10-14T02:21:29;15.20;;;14.20;;
16393;SDS011;8306;51.128;4.476;2022-10-14T02:24:03;15.83;;;14.43;;
16393;SDS011;8306;51.128;4.476;2022-10-14T02:26:27;15.07;;;13.97;;
16393;SDS011;8306;51.128;4.476;2022-10-14T02:28:54;15.07;;;13.97;;
16393;SDS011;8306;51.128;4.476;2022-10-14T02:31:20;16.43;;;15.20;;
16393;SDS011;8306;51.128;4.476;2022-10-14T02:33:51;15.47;;;14.37;;
16393;SDS011;8306;51.128;4.476;2022-10-14T02:36:14;16.83;;;15.43;;
16393;SDS011;8306;51.128;4.476;2022-10-14T02:38:40;15.40;;;14.30;;
16393;SDS011;8306;51.128;4.476;2022-10-14T02:41:06;14.87;;;13.87;;
16393;SDS011;8306;51.128;4.476;2022-10-14T02:43:33;15.50;;;14.40;;
16393;SDS011;8306;51.128;4.476;2022-10-14T02:46:00;13.93;;;13.03;;
16393;SDS011;8306;51.128;4.476;2022-10-14T02:48:26;17.37;;;15.97;;
16393;SDS011;8306;51.128;4.476;2022-10-14T02:50:52;14.93;;;13.87;;
16393;SDS011;8306;51.128;4.476;2022-10-14T02:53:18;14.60;;;13.60;;
16393;SDS011;8306;51.128;4.476;2022-10-14T02:55:45;15.43;;;14.33;;
16393;SDS011;8306;51.128;4.476;2022-10-14T02:58:11;15.87;;;14.67;;
16393;SDS011;8306;51.128;4.476;2022-10-14T03:00:38;15.70;;;14.53;;
16393;SDS011;8306;51.128;4.476;2022-10-14T03:03:04;13.70;;;12.80;;
16393;SDS011;8306;51.128;4.476;2022-10-14T03:05:31;13.47;;;12.50;;
16393;SDS011;8306;51.128;4.476;2022-10-14T03:07:57;14.07;;;13.07;;
16393;SDS011;8306;51.128;4.476;2022-10-14T03:10:24;14.47;;;13.47;;
16393;SDS011;8306;51.128;4.476;2022-10-14T03:12:50;13.70;;;12.70;;
16393;SDS011;8306;51.128;4.476;2022-10-14T03:15:17;14.60;;;13.33;;
16393;SDS011;8306;51.128;4.476;2022-10-14T03:17:43;14.80;;;13.70;;
16393;SDS011;8306;51.128;4.476;2022-10-14T03:20:10;14.33;;;13.23;;
16393;SDS011;8306;51.128;4.476;2022-10-14T03:22:36;15.07;;;13.57;;
16393;SDS011;8306;51.128;4.476;2022-10-14T03:25:03;13.80;;;12.67;;
16393;SDS011;8306;51.128;4.476;2022-10-14T03:27:29;13.60;;;12.50;;
16393;SDS011;8306;51.128;4.476;2022-10-14T03:29:56;13.60;;;12.70;;
16393;SDS011;8306;51.128;4.476;2022-10-14T03:32:22;14.53;;;13.53;;
16393;SDS011;8306;51.128;4.476;2022-10-14T03:34:49;13.43;;;12.43;;
16393;SDS011;8306;51.128;4.476;2022-10-14T03:37:15;13.90;;;12.87;;
16393;SDS011;8306;51.128;4.476;2022-10-14T03:39:42;13.47;;;12.10;;
16393;SDS011;8306;51.128;4.476;2022-10-14T03:42:08;13.83;;;12.87;;
16393;SDS011;8306;51.128;4.476;2022-10-14T03:44:35;13.53;;;12.63;;
16393;SDS011;8306;51.128;4.476;2022-10-14T03:47:01;15.73;;;14.43;;
16393;SDS011;8306;51.128;4.476;2022-10-14T03:49:28;14.70;;;13.70;;
16393;SDS011;8306;51.128;4.476;2022-10-14T03:51:54;14.43;;;13.37;;
16393;SDS011;8306;51.128;4.476;2022-10-14T03:54:21;15.03;;;13.93;;
16393;SDS011;8306;51.128;4.476;2022-10-14T03:56:47;15.27;;;14.17;;
16393;SDS011;8306;51.128;4.476;2022-10-14T03:59:14;13.50;;;12.60;;
16393;SDS011;8306;51.128;4.476;2022-10-14T04:01:40;14.70;;;13.53;;
16393;SDS011;8306;51.128;4.476;2022-10-14T04:04:07;14.20;;;13.10;;
16393;SDS011;8306;51.128;4.476;2022-10-14T04:06:33;14.27;;;13.10;;
16393;SDS011;8306;51.128;4.476;2022-10-14T04:09:00;13.93;;;12.93;;
16393;SDS011;8306;51.128;4.476;2022-10-14T04:11:26;13.47;;;12.27;;
16393;SDS011;8306;51.128;4.476;2022-10-14T04:13:56;13.53;;;12.53;;
16393;SDS011;8306;51.128;4.476;2022-10-14T04:16:19;14.57;;;13.47;;
16393;SDS011;8306;51.128;4.476;2022-10-14T04:18:46;12.20;;;11.30;;
16393;SDS011;8306;51.128;4.476;2022-10-14T04:21:12;12.67;;;11.77;;
16393;SDS011;8306;51.128;4.476;2022-10-14T04:23:38;12.43;;;11.63;;
16393;SDS011;8306;51.128;4.476;2022-10-14T04:26:05;12.57;;;11.53;;
16393;SDS011;8306;51.128;4.476;2022-10-14T04:28:32;12.90;;;11.83;;
16393;SDS011;8306;51.128;4.476;2022-10-14T04:30:58;13.97;;;12.87;;
16393;SDS011;8306;51.128;4.476;2022-10-14T04:33:25;12.10;;;11.10;;
16393;SDS011;8306;51.128;4.476;2022-10-14T04:36:01;12.57;;;11.47;;
16393;SDS011;8306;51.128;4.476;2022-10-14T04:38:23;12.57;;;11.50;;
16393;SDS011;8306;51.128;4.476;2022-10-14T04:40:49;13.43;;;12.33;;
16393;SDS011;8306;51.128;4.476;2022-10-14T04:43:16;12.57;;;11.77;;
16393;SDS011;8306;51.128;4.476;2022-10-14T04:45:42;13.90;;;12.80;;
16393;SDS011;8306;51.128;4.476;2022-10-14T04:48:09;11.90;;;11.00;;
16393;SDS011;8306;51.128;4.476;2022-10-14T04:50:35;13.30;;;12.20;;
16393;SDS011;8306;51.128;4.476;2022-10-14T04:53:02;11.97;;;11.07;;
16393;SDS011;8306;51.128;4.476;2022-10-14T04:55:28;13.70;;;12.47;;
16393;SDS011;8306;51.128;4.476;2022-10-14T04:57:55;13.30;;;12.33;;
16393;SDS011;8306;51.128;4.476;2022-10-14T05:00:21;14.83;;;13.63;;
16393;SDS011;8306;51.128;4.476;2022-10-14T05:02:48;12.87;;;11.90;;
16393;SDS011;8306;51.128;4.476;2022-10-14T05:05:14;14.30;;;13.03;;
16393;SDS011;8306;51.128;4.476;2022-10-14T05:07:41;14.17;;;12.80;;
16393;SDS011;8306;51.128;4.476;2022-10-14T05:10:07;13.63;;;12.67;;
16393;SDS011;8306;51.128;4.476;2022-10-14T05:12:37;13.53;;;12.33;;
16393;SDS011;8306;51.128;4.476;2022-10-14T05:15:03;15.30;;;14.03;;
16393;SDS011;8306;51.128;4.476;2022-10-14T05:17:30;15.33;;;13.83;;
16393;SDS011;8306;51.128;4.476;2022-10-14T05:19:56;13.80;;;12.70;;
16393;SDS011;8306;51.128;4.476;2022-10-14T05:22:23;15.13;;;13.93;;
16393;SDS011;8306;51.128;4.476;2022-10-14T05:24:49;15.80;;;14.60;;
16393;SDS011;8306;51.128;4.476;2022-10-14T05:27:16;27.87;;;23.23;;
16393;SDS011;8306;51.128;4.476;2022-10-14T05:29:42;27.27;;;24.47;;
16393;SDS011;8306;51.128;4.476;2022-10-14T05:32:09;36.00;;;29.50;;
16393;SDS011;8306;51.128;4.476;2022-10-14T05:34:35;39.00;;;32.23;;
16393;SDS011;8306;51.128;4.476;2022-10-14T05:37:02;33.50;;;29.80;;
16393;SDS011;8306;51.128;4.476;2022-10-14T05:39:28;30.73;;;27.93;;
16393;SDS011;8306;51.128;4.476;2022-10-14T05:41:55;30.73;;;26.53;;
16393;SDS011;8306;51.128;4.476;2022-10-14T05:44:21;21.37;;;19.20;;
16393;SDS011;8306;51.128;4.476;2022-10-14T05:46:48;20.43;;;18.80;;
16393;SDS011;8306;51.128;4.476;2022-10-14T05:49:14;18.83;;;17.43;;
16393;SDS011;8306;51.128;4.476;2022-10-14T05:51:41;19.97;;;18.33;;
16393;SDS011;8306;51.128;4.476;2022-10-14T05:54:07;20.40;;;18.33;;
16393;SDS011;8306;51.128;4.476;2022-10-14T05:56:34;22.07;;;19.93;;
16393;SDS011;8306;51.128;4.476;2022-10-14T05:59:00;27.33;;;20.47;;
16393;SDS011;8306;51.128;4.476;2022-10-14T06:01:27;16.70;;;15.40;;
16393;SDS011;8306;51.128;4.476;2022-10-14T06:03:53;18.10;;;16.47;;
16393;SDS011;8306;51.128;4.476;2022-10-14T06:06:32;16.90;;;15.53;;
16393;SDS011;8306;51.128;4.476;2022-10-14T06:09:00;17.80;;;16.17;;
16393;SDS011;8306;51.128;4.476;2022-10-14T06:11:26;14.77;;;13.67;;
16393;SDS011;8306;51.128;4.476;2022-10-14T06:13:53;15.97;;;14.47;;
16393;SDS011;8306;51.128;4.476;2022-10-14T06:16:19;14.37;;;13.27;;
16393;SDS011;8306;51.128;4.476;2022-10-14T06:18:46;12.53;;;11.63;;
16393;SDS011;8306;51.128;4.476;2022-10-14T06:21:12;14.33;;;12.93;;
16393;SDS011;8306;51.128;4.476;2022-10-14T06:23:39;14.80;;;13.40;;
16393;SDS011;8306;51.128;4.476;2022-10-14T06:26:05;15.00;;;13.53;;
16393;SDS011;8306;51.128;4.476;2022-10-14T06:28:32;14.80;;;13.60;;
16393;SDS011;8306;51.128;4.476;2022-10-14T06:30:58;13.53;;;12.23;;
16393;SDS011;8306;51.128;4.476;2022-10-14T06:33:26;13.57;;;12.47;;
16393;SDS011;8306;51.128;4.476;2022-10-14T06:35:51;14.17;;;13.03;;
16393;SDS011;8306;51.128;4.476;2022-10-14T06:38:18;14.87;;;13.53;;
16393;SDS011;8306;51.128;4.476;2022-10-14T06:40:44;15.27;;;13.80;;
16393;SDS011;8306;51.128;4.476;2022-10-14T06:43:11;14.90;;;13.50;;
16393;SDS011;8306;51.128;4.476;2022-10-14T06:45:37;13.00;;;12.00;;
16393;SDS011;8306;51.128;4.476;2022-10-14T06:48:04;14.60;;;13.20;;
16393;SDS011;8306;51.128;4.476;2022-10-14T06:50:30;15.43;;;13.87;;
16393;SDS011;8306;51.128;4.476;2022-10-14T06:52:57;14.70;;;13.30;;
16393;SDS011;8306;51.128;4.476;2022-10-14T06:55:23;14.80;;;13.47;;
16393;SDS011;8306;51.128;4.476;2022-10-14T06:57:50;14.63;;;13.33;;
16393;SDS011;8306;51.128;4.476;2022-10-14T07:00:16;14.70;;;13.50;;
16393;SDS011;8306;51.128;4.476;2022-10-14T07:02:43;13.73;;;12.60;;
16393;SDS011;8306;51.128;4.476;2022-10-14T07:05:09;14.97;;;13.53;;
16393;SDS011;8306;51.128;4.476;2022-10-14T07:07:36;15.43;;;14.03;;
16393;SDS011;8306;51.128;4.476;2022-10-14T07:10:02;13.53;;;12.43;;
16393;SDS011;8306;51.128;4.476;2022-10-14T07:12:29;14.87;;;13.53;;
16393;SDS011;8306;51.128;4.476;2022-10-14T07:14:55;14.90;;;13.60;;
16393;SDS011;8306;51.128;4.476;2022-10-14T07:17:22;14.20;;;13.00;;
16393;SDS011;8306;51.128;4.476;2022-10-14T07:19:48;16.50;;;14.90;;
16393;SDS011;8306;51.128;4.476;2022-10-14T07:22:15;16.77;;;15.33;;
16393;SDS011;8306;51.128;4.476;2022-10-14T07:24:41;16.17;;;14.53;;
16393;SDS011;8306;51.128;4.476;2022-10-14T07:27:08;16.60;;;14.77;;
16393;SDS011;8306;51.128;4.476;2022-10-14T07:29:34;16.57;;;15.27;;
16393;SDS011;8306;51.128;4.476;2022-10-14T07:32:01;17.73;;;16.07;;
16393;SDS011;8306;51.128;4.476;2022-10-14T07:34:27;18.80;;;17.00;;
16393;SDS011;8306;51.128;4.476;2022-10-14T07:36:54;15.80;;;14.47;;
16393;SDS011;8306;51.128;4.476;2022-10-14T07:39:20;15.17;;;13.97;;
16393;SDS011;8306;51.128;4.476;2022-10-14T07:41:46;15.80;;;14.43;;
16393;SDS011;8306;51.128;4.476;2022-10-14T07:44:13;16.60;;;14.87;;
16393;SDS011;8306;51.128;4.476;2022-10-14T07:46:41;15.13;;;13.83;;
16393;SDS011;8306;51.128;4.476;2022-10-14T07:49:09;13.20;;;12.10;;
16393;SDS011;8306;51.128;4.476;2022-10-14T07:51:33;12.23;;;11.23;;
16393;SDS011;8306;51.128;4.476;2022-10-14T07:53:59;13.50;;;12.50;;
16393;SDS011;8306;51.128;4.476;2022-10-14T07:56:26;13.03;;;11.93;;
16393;SDS011;8306;51.128;4.476;2022-10-14T07:58:52;14.00;;;12.80;;
16393;SDS011;8306;51.128;4.476;2022-10-14T08:01:18;12.93;;;11.93;;
16393;SDS011;8306;51.128;4.476;2022-10-14T08:03:46;14.13;;;12.70;;
16393;SDS011;8306;51.128;4.476;2022-10-14T08:06:11;14.97;;;13.57;;
16393;SDS011;8306;51.128;4.476;2022-10-14T08:08:38;13.87;;;12.77;;
16393;SDS011;8306;51.128;4.476;2022-10-14T08:11:24;14.07;;;12.97;;
16393;SDS011;8306;51.128;4.476;2022-10-14T08:13:40;15.03;;;13.53;;
16393;SDS011;8306;51.128;4.476;2022-10-14T08:16:13;15.00;;;13.70;;
16393;SDS011;8306;51.128;4.476;2022-10-14T08:18:39;14.67;;;13.57;;
16393;SDS011;8306;51.128;4.476;2022-10-14T08:21:05;15.30;;;14.10;;
16393;SDS011;8306;51.128;4.476;2022-10-14T08:23:31;14.13;;;12.93;;
16393;SDS011;8306;51.128;4.476;2022-10-14T08:25:58;13.80;;;12.70;;
16393;SDS011;8306;51.128;4.476;2022-10-14T08:28:24;14.60;;;13.43;;
16393;SDS011;8306;51.128;4.476;2022-10-14T08:30:51;13.67;;;12.47;;
16393;SDS011;8306;51.128;4.476;2022-10-14T08:33:18;12.70;;;11.70;;
16393;SDS011;8306;51.128;4.476;2022-10-14T08:35:44;12.63;;;11.53;;
16393;SDS011;8306;51.128;4.476;2022-10-14T08:38:10;11.57;;;10.57;;
16393;SDS011;8306;51.128;4.476;2022-10-14T08:43:14;12.50;;;11.50;;
16393;SDS011;8306;51.128;4.476;2022-10-14T08:45:41;12.43;;;11.53;;
16393;SDS011;8306;51.128;4.476;2022-10-14T08:48:09;12.27;;;11.27;;
16393;SDS011;8306;51.128;4.476;2022-10-14T08:50:38;11.97;;;11.07;;
16393;SDS011;8306;51.128;4.476;2022-10-14T08:53:26;13.37;;;12.30;;
16393;SDS011;8306;51.128;4.476;2022-10-14T08:55:36;12.17;;;11.23;;
16393;SDS011;8306;51.128;4.476;2022-10-14T08:58:10;12.47;;;11.57;;
16393;SDS011;8306;51.128;4.476;2022-10-14T09:00:30;10.47;;;9.77;;
16393;SDS011;8306;51.128;4.476;2022-10-14T09:02:58;10.67;;;9.77;;
16393;SDS011;8306;51.128;4.476;2022-10-14T09:05:24;10.27;;;9.50;;
16393;SDS011;8306;51.128;4.476;2022-10-14T09:07:51;9.63;;;9.00;;
16393;SDS011;8306;51.128;4.476;2022-10-14T09:10:21;10.13;;;9.43;;
16393;SDS011;8306;51.128;4.476;2022-10-14T09:12:43;8.80;;;8.00;;
16393;SDS011;8306;51.128;4.476;2022-10-14T09:15:17;9.47;;;8.67;;
16393;SDS011;8306;51.128;4.476;2022-10-14T09:17:50;9.80;;;9.03;;
16393;SDS011;8306;51.128;4.476;2022-10-14T09:20:16;8.37;;;7.73;;
16393;SDS011;8306;51.128;4.476;2022-10-14T09:22:43;8.63;;;7.93;;
16393;SDS011;8306;51.128;4.476;2022-10-14T09:25:13;8.43;;;7.73;;
16393;SDS011;8306;51.128;4.476;2022-10-14T09:27:41;8.83;;;8.13;;
16393;SDS011;8306;51.128;4.476;2022-10-14T09:30:12;7.40;;;6.90;;
16393;SDS011;8306;51.128;4.476;2022-10-14T09:32:35;6.67;;;6.27;;
16393;SDS011;8306;51.128;4.476;2022-10-14T09:35:23;6.10;;;5.60;;
16393;SDS011;8306;51.128;4.476;2022-10-14T09:37:51;5.90;;;5.50;;
16393;SDS011;8306;51.128;4.476;2022-10-14T09:40:34;6.23;;;5.70;;
16393;SDS011;8306;51.128;4.476;2022-10-14T09:48:28;4.73;;;4.37;;
16393;SDS011;8306;51.128;4.476;2022-10-14T09:51:04;5.23;;;4.83;;
16393;SDS011;8306;51.128;4.476;2022-10-14T09:53:50;4.37;;;4.00;;
16393;SDS011;8306;51.128;4.476;2022-10-14T09:56:33;4.30;;;4.00;;
16393;SDS011;8306;51.128;4.476;2022-10-14T09:59:02;4.00;;;3.70;;
16393;SDS011;8306;51.128;4.476;2022-10-14T10:01:36;3.97;;;3.67;;
16393;SDS011;8306;51.128;4.476;2022-10-14T10:03:55;3.63;;;3.43;;
16393;SDS011;8306;51.128;4.476;2022-10-14T10:06:22;2.83;;;2.73;;
16393;SDS011;8306;51.128;4.476;2022-10-14T10:11:27;3.90;;;3.60;;
16393;SDS011;8306;51.128;4.476;2022-10-14T10:13:52;3.80;;;3.50;;
16393;SDS011;8306;51.128;4.476;2022-10-14T10:16:20;3.77;;;3.53;;
16393;SDS011;8306;51.128;4.476;2022-10-14T10:18:49;3.30;;;3.13;;
16393;SDS011;8306;51.128;4.476;2022-10-14T10:21:16;2.90;;;2.80;;
16393;SDS011;8306;51.128;4.476;2022-10-14T10:23:54;3.20;;;3.00;;
16393;SDS011;8306;51.128;4.476;2022-10-14T10:26:26;3.90;;;3.60;;
16393;SDS011;8306;51.128;4.476;2022-10-14T10:28:49;3.63;;;3.43;;
16393;SDS011;8306;51.128;4.476;2022-10-14T10:31:20;3.67;;;3.47;;
16393;SDS011;8306;51.128;4.476;2022-10-14T10:36:45;3.47;;;3.27;;
16393;SDS011;8306;51.128;4.476;2022-10-14T10:39:16;3.17;;;2.97;;
16393;SDS011;8306;51.128;4.476;2022-10-14T10:41:55;3.23;;;3.03;;
16393;SDS011;8306;51.128;4.476;2022-10-14T10:46:54;2.80;;;2.67;;
16393;SDS011;8306;51.128;4.476;2022-10-14T10:50:05;3.13;;;2.90;;
16393;SDS011;8306;51.128;4.476;2022-10-14T10:52:17;3.13;;;2.93;;
16393;SDS011;8306;51.128;4.476;2022-10-14T10:54:54;2.90;;;2.70;;
16393;SDS011;8306;51.128;4.476;2022-10-14T10:57:31;2.40;;;2.30;;
16393;SDS011;8306;51.128;4.476;2022-10-14T11:00:00;2.83;;;2.63;;
16393;SDS011;8306;51.128;4.476;2022-10-14T11:08:11;2.90;;;2.70;;
16393;SDS011;8306;51.128;4.476;2022-10-14T11:11:04;3.10;;;2.90;;
16393;SDS011;8306;51.128;4.476;2022-10-14T11:16:14;3.40;;;3.20;;
16393;SDS011;8306;51.128;4.476;2022-10-14T11:18:43;4.13;;;3.83;;
16393;SDS011;8306;51.128;4.476;2022-10-14T11:21:17;4.17;;;3.87;;
16393;SDS011;8306;51.128;4.476;2022-10-14T11:23:54;4.13;;;3.87;;
16393;SDS011;8306;51.128;4.476;2022-10-14T11:31:40;4.57;;;4.27;;
16393;SDS011;8306;51.128;4.476;2022-10-14T11:34:09;4.60;;;4.33;;
16393;SDS011;8306;51.128;4.476;2022-10-14T11:36:45;4.70;;;4.40;;
16393;SDS011;8306;51.128;4.476;2022-10-14T11:44:33;4.97;;;4.67;;
16393;SDS011;8306;51.128;4.476;2022-10-14T11:47:02;5.23;;;4.93;;
16393;SDS011;8306;51.128;4.476;2022-10-14T11:49:29;6.07;;;5.67;;
16393;SDS011;8306;51.128;4.476;2022-10-14T11:51:59;5.30;;;5.00;;
16393;SDS011;8306;51.128;4.476;2022-10-14T11:54:29;5.20;;;4.90;;
16393;SDS011;8306;51.128;4.476;2022-10-14T12:04:45;5.73;;;5.33;;
16393;SDS011;8306;51.128;4.476;2022-10-14T12:07:14;5.33;;;5.03;;
16393;SDS011;8306;51.128;4.476;2022-10-14T12:10:01;5.83;;;5.53;;
16393;SDS011;8306;51.128;4.476;2022-10-14T12:12:39;6.10;;;5.80;;
16393;SDS011;8306;51.128;4.476;2022-10-14T12:15:06;6.07;;;5.67;;
16393;SDS011;8306;51.128;4.476;2022-10-14T12:17:33;5.90;;;5.50;;
16393;SDS011;8306;51.128;4.476;2022-10-14T12:20:21;6.20;;;5.87;;
16393;SDS011;8306;51.128;4.476;2022-10-14T12:22:43;6.47;;;6.07;;
16393;SDS011;8306;51.128;4.476;2022-10-14T12:25:11;6.07;;;5.77;;
16393;SDS011;8306;51.128;4.476;2022-10-14T12:27:38;5.97;;;5.67;;
16393;SDS011;8306;51.128;4.476;2022-10-14T12:30:16;5.90;;;5.60;;
16393;SDS011;8306;51.128;4.476;2022-10-14T12:32:31;6.30;;;5.90;;
16393;SDS011;8306;51.128;4.476;2022-10-14T12:34:58;5.87;;;5.47;;
16393;SDS011;8306;51.128;4.476;2022-10-14T12:45:02;6.03;;;5.63;;
16393;SDS011;8306;51.128;4.476;2022-10-14T12:47:29;6.00;;;5.60;;
16393;SDS011;8306;51.128;4.476;2022-10-14T12:49:57;5.17;;;4.87;;
16393;SDS011;8306;51.128;4.476;2022-10-14T12:52:33;5.83;;;5.53;;
16393;SDS011;8306;51.128;4.476;2022-10-14T12:54:59;5.97;;;5.57;;
16393;SDS011;8306;51.128;4.476;2022-10-14T12:57:27;6.77;;;6.33;;
16393;SDS011;8306;51.128;4.476;2022-10-14T12:59:56;8.00;;;7.50;;
16393;SDS011;8306;51.128;4.476;2022-10-14T13:04:59;8.23;;;7.73;;
16393;SDS011;8306;51.128;4.476;2022-10-14T13:07:29;8.67;;;8.13;;
16393;SDS011;8306;51.128;4.476;2022-10-14T13:09:55;9.40;;;8.70;;
16393;SDS011;8306;51.128;4.476;2022-10-14T13:23:19;8.47;;;8.07;;
16393;SDS011;8306;51.128;4.476;2022-10-14T13:28:47;9.43;;;8.83;;
16393;SDS011;8306;51.128;4.476;2022-10-14T13:31:22;9.10;;;8.60;;
16393;SDS011;8306;51.128;4.476;2022-10-14T13:33:49;9.33;;;8.73;;
16393;SDS011;8306;51.128;4.476;2022-10-14T13:38:55;8.63;;;8.13;;
16393;SDS011;8306;51.128;4.476;2022-10-14T13:41:21;9.63;;;9.13;;
16393;SDS011;8306;51.128;4.476;2022-10-14T13:43:47;8.83;;;8.23;;
16393;SDS011;8306;51.128;4.476;2022-10-14T13:46:26;9.17;;;8.67;;
16393;SDS011;8306;51.128;4.476;2022-10-14T13:48:54;9.90;;;9.30;;
16393;SDS011;8306;51.128;4.476;2022-10-14T13:56:38;9.03;;;8.53;;
16393;SDS011;8306;51.128;4.476;2022-10-14T13:59:21;9.40;;;8.90;;
16393;SDS011;8306;51.128;4.476;2022-10-14T14:01:46;9.67;;;9.07;;
16393;SDS011;8306;51.128;4.476;2022-10-14T14:04:15;10.27;;;9.70;;
16393;SDS011;8306;51.128;4.476;2022-10-14T14:06:42;8.77;;;8.27;;
16393;SDS011;8306;51.128;4.476;2022-10-14T14:09:13;9.87;;;9.27;;
16393;SDS011;8306;51.128;4.476;2022-10-14T14:11:35;9.47;;;8.90;;
16393;SDS011;8306;51.128;4.476;2022-10-14T14:14:02;8.73;;;8.23;;
16393;SDS011;8306;51.128;4.476;2022-10-14T14:16:29;9.70;;;9.20;;
16393;SDS011;8306;51.128;4.476;2022-10-14T14:18:54;10.53;;;9.93;;
16393;SDS011;8306;51.128;4.476;2022-10-14T14:21:21;10.60;;;10.00;;
16393;SDS011;8306;51.128;4.476;2022-10-14T14:23:58;13.17;;;12.47;;
16393;SDS011;8306;51.128;4.476;2022-10-14T14:26:14;13.20;;;12.40;;
16393;SDS011;8306;51.128;4.476;2022-10-14T14:28:40;13.03;;;12.33;;
16393;SDS011;8306;51.128;4.476;2022-10-14T14:31:10;13.60;;;12.80;;
16393;SDS011;8306;51.128;4.476;2022-10-14T14:33:33;13.17;;;12.37;;
16393;SDS011;8306;51.128;4.476;2022-10-14T14:36:03;12.97;;;12.27;;
16393;SDS011;8306;51.128;4.476;2022-10-14T14:38:30;14.03;;;13.13;;
16393;SDS011;8306;51.128;4.476;2022-10-14T14:40:59;14.83;;;14.00;;
16393;SDS011;8306;51.128;4.476;2022-10-14T14:43:25;13.57;;;12.77;;
16393;SDS011;8306;51.128;4.476;2022-10-14T14:45:51;14.57;;;13.77;;
16393;SDS011;8306;51.128;4.476;2022-10-14T14:48:18;13.70;;;12.80;;
16393;SDS011;8306;51.128;4.476;2022-10-14T14:50:44;15.27;;;14.27;;
16393;SDS011;8306;51.128;4.476;2022-10-14T14:53:12;13.87;;;13.07;;
16393;SDS011;8306;51.128;4.476;2022-10-14T15:01:03;14.47;;;13.57;;
16393;SDS011;8306;51.128;4.476;2022-10-14T15:03:33;13.67;;;12.97;;
16393;SDS011;8306;51.128;4.476;2022-10-14T15:05:57;14.10;;;13.30;;
16393;SDS011;8306;51.128;4.476;2022-10-14T15:08:26;13.93;;;13.23;;
16393;SDS011;8306;51.128;4.476;2022-10-14T15:10:52;14.93;;;14.03;;
16393;SDS011;8306;51.128;4.476;2022-10-14T15:13:41;14.77;;;13.93;;
16393;SDS011;8306;51.128;4.476;2022-10-14T15:15:56;13.80;;;13.00;;
16393;SDS011;8306;51.128;4.476;2022-10-14T15:18:23;15.43;;;14.63;;
16393;SDS011;8306;51.128;4.476;2022-10-14T15:20:49;14.70;;;13.90;;
16393;SDS011;8306;51.128;4.476;2022-10-14T15:26:22;14.80;;;14.00;;
16393;SDS011;8306;51.128;4.476;2022-10-14T15:29:11;16.27;;;15.37;;
16393;SDS011;8306;51.128;4.476;2022-10-14T15:31:36;15.47;;;14.57;;
16393;SDS011;8306;51.128;4.476;2022-10-14T15:33:59;16.17;;;15.17;;
16393;SDS011;8306;51.128;4.476;2022-10-14T15:36:29;16.37;;;15.47;;
16393;SDS011;8306;51.128;4.476;2022-10-14T15:38:54;16.30;;;15.40;;
16393;SDS011;8306;51.128;4.476;2022-10-14T15:41:21;17.47;;;16.27;;
16393;SDS011;8306;51.128;4.476;2022-10-14T15:43:47;16.80;;;15.90;;
16393;SDS011;8306;51.128;4.476;2022-10-14T15:46:14;15.33;;;14.27;;
16393;SDS011;8306;51.128;4.476;2022-10-14T15:48:59;16.37;;;15.27;;
16393;SDS011;8306;51.128;4.476;2022-10-14T15:51:27;16.30;;;15.40;;
16393;SDS011;8306;51.128;4.476;2022-10-14T15:53:51;16.53;;;15.53;;
16393;SDS011;8306;51.128;4.476;2022-10-14T15:56:18;17.70;;;16.60;;
16393;SDS011;8306;51.128;4.476;2022-10-14T15:58:44;17.20;;;16.20;;
16393;SDS011;8306;51.128;4.476;2022-10-14T16:01:18;17.23;;;16.30;;
16393;SDS011;8306;51.128;4.476;2022-10-14T16:03:40;17.50;;;16.30;;
16393;SDS011;8306;51.128;4.476;2022-10-14T16:06:06;17.60;;;16.50;;
16393;SDS011;8306;51.128;4.476;2022-10-14T16:08:33;18.50;;;17.40;;
16393;SDS011;8306;51.128;4.476;2022-10-14T16:10:59;17.30;;;16.40;;
16393;SDS011;8306;51.128;4.476;2022-10-14T16:13:26;17.97;;;16.87;;
16393;SDS011;8306;51.128;4.476;2022-10-14T16:15:56;18.37;;;17.27;;
16393;SDS011;8306;51.128;4.476;2022-10-14T16:18:22;21.70;;;20.30;;
16393;SDS011;8306;51.128;4.476;2022-10-14T16:20:48;19.00;;;17.80;;
16393;SDS011;8306;51.128;4.476;2022-10-14T16:23:18;20.77;;;19.47;;
16393;SDS011;8306;51.128;4.476;2022-10-14T16:25:44;18.93;;;17.73;;